EJU4285 LIRN-LMML
Flight info
| Callsign | EJU4285 |
|---|---|
| Flight time | 0h 51m |
| Altitude | 35000 |
| Route | AGNIS DCT OBAXU DCT NELDA N982 GZO |
| Aircraft | A320/M-SDE3FGHIRWY/LB1 |
Departure
| Time | 2026-05-04 17:42 |
|---|---|
| Airport | Naples International Airport (LIRN) |
Arrival
| Time | 2026-05-04 18:33 |
|---|---|
| Airport | Malta International Airport (LMML) |
| Time | Latitude | Longitude | Altitude | Speed | Heading |
|---|---|---|---|---|---|
| 2026-05-04 17:17 | 40.87880 | 14.28285 | 291 ft | 0 kts | 187° |
| 2026-05-04 17:35 | 40.87901 | 14.28288 | 291 ft | 4 kts | 182° |
| 2026-05-04 17:35 | 40.87949 | 14.28273 | 290 ft | 4 kts | 120° |
| 2026-05-04 17:35 | 40.87953 | 14.28263 | 295 ft | 1 kts | 99° |
| 2026-05-04 17:37 | 40.87953 | 14.28264 | 294 ft | 0 kts | 99° |
| 2026-05-04 17:37 | 40.87946 | 14.28324 | 291 ft | 9 kts | 99° |
| 2026-05-04 17:37 | 40.87938 | 14.28409 | 292 ft | 9 kts | 96° |
| 2026-05-04 17:37 | 40.87961 | 14.28484 | 287 ft | 10 kts | 43° |
| 2026-05-04 17:38 | 40.88011 | 14.28546 | 285 ft | 10 kts | 50° |
| 2026-05-04 17:38 | 40.88076 | 14.28658 | 282 ft | 20 kts | 52° |
| 2026-05-04 17:38 | 40.88166 | 14.28814 | 278 ft | 23 kts | 52° |
| 2026-05-04 17:38 | 40.88272 | 14.28997 | 275 ft | 27 kts | 52° |
| 2026-05-04 17:39 | 40.88518 | 14.29423 | 263 ft | 30 kts | 52° |
| 2026-05-04 17:39 | 40.88639 | 14.29634 | 257 ft | 29 kts | 53° |
| 2026-05-04 17:39 | 40.88762 | 14.29846 | 250 ft | 27 kts | 52° |
| 2026-05-04 17:40 | 40.88883 | 14.30057 | 243 ft | 30 kts | 54° |
| 2026-05-04 17:40 | 40.89008 | 14.30275 | 235 ft | 26 kts | 53° |
| 2026-05-04 17:40 | 40.89095 | 14.30419 | 229 ft | 16 kts | 50° |
| 2026-05-04 17:40 | 40.89130 | 14.30450 | 227 ft | 0 kts | 17° |
| 2026-05-04 17:41 | 40.89169 | 14.30444 | 226 ft | 13 kts | 339° |
| 2026-05-04 17:41 | 40.89196 | 14.30337 | 229 ft | 14 kts | 245° |
| 2026-05-04 17:42 | 40.89131 | 14.30194 | 234 ft | 37 kts | 238° |
| 2026-05-04 17:42 | 40.88861 | 14.29621 | 253 ft | 106 kts | 238° |
| 2026-05-04 17:42 | 40.88375 | 14.28586 | 312 ft | 154 kts | 238° |
| 2026-05-04 17:42 | 40.87803 | 14.27397 | 997 ft | 154 kts | 230° |
| 2026-05-04 17:43 | 40.86923 | 14.26565 | 1591 ft | 166 kts | 198° |
| 2026-05-04 17:43 | 40.85694 | 14.26540 | 1992 ft | 187 kts | 174° |
| 2026-05-04 17:43 | 40.84392 | 14.26749 | 2582 ft | 193 kts | 174° |
| 2026-05-04 17:43 | 40.83036 | 14.26947 | 3257 ft | 194 kts | 174° |
| 2026-05-04 17:44 | 40.81703 | 14.27137 | 3898 ft | 197 kts | 174° |
| 2026-05-04 17:44 | 40.80332 | 14.27331 | 4551 ft | 200 kts | 174° |
| 2026-05-04 17:44 | 40.78947 | 14.27523 | 5298 ft | 201 kts | 174° |
| 2026-05-04 17:44 | 40.77550 | 14.27714 | 6026 ft | 203 kts | 174° |
| 2026-05-04 17:45 | 40.76137 | 14.27905 | 6732 ft | 205 kts | 174° |
| 2026-05-04 17:45 | 40.74708 | 14.28099 | 7419 ft | 208 kts | 174° |
| 2026-05-04 17:45 | 40.73256 | 14.28295 | 8102 ft | 211 kts | 175° |
| 2026-05-04 17:45 | 40.71787 | 14.28494 | 8776 ft | 214 kts | 175° |
| 2026-05-04 17:46 | 40.70312 | 14.28863 | 9341 ft | 224 kts | 165° |
| 2026-05-04 17:46 | 40.68736 | 14.29459 | 9650 ft | 247 kts | 164° |
| 2026-05-04 17:46 | 40.67006 | 14.30123 | 9999 ft | 271 kts | 164° |
| 2026-05-04 17:46 | 40.65118 | 14.30847 | 10339 ft | 295 kts | 164° |
| 2026-05-04 17:47 | 40.63066 | 14.31633 | 10643 ft | 319 kts | 164° |
| 2026-05-04 17:47 | 40.60879 | 14.32470 | 11159 ft | 333 kts | 164° |
| 2026-05-04 17:47 | 40.58638 | 14.33333 | 11928 ft | 338 kts | 163° |
| 2026-05-04 17:47 | 40.56417 | 14.34405 | 12704 ft | 343 kts | 159° |
| 2026-05-04 17:48 | 40.54190 | 14.35585 | 13441 ft | 347 kts | 159° |
| 2026-05-04 17:48 | 40.51946 | 14.36816 | 14138 ft | 352 kts | 159° |
| 2026-05-04 17:48 | 40.49675 | 14.38077 | 14815 ft | 357 kts | 159° |
| 2026-05-04 17:48 | 40.47376 | 14.39350 | 15468 ft | 361 kts | 159° |
| 2026-05-04 17:49 | 40.45047 | 14.40629 | 16102 ft | 366 kts | 159° |
| 2026-05-04 17:49 | 40.42682 | 14.41916 | 16728 ft | 370 kts | 160° |
| 2026-05-04 17:49 | 40.40286 | 14.43212 | 17331 ft | 374 kts | 160° |
| 2026-05-04 17:49 | 40.37863 | 14.44516 | 17933 ft | 379 kts | 160° |
| 2026-05-04 17:50 | 40.35415 | 14.45833 | 18517 ft | 383 kts | 160° |
| 2026-05-04 17:50 | 40.32936 | 14.47167 | 19063 ft | 387 kts | 161° |
| 2026-05-04 17:50 | 40.30429 | 14.48514 | 19624 ft | 392 kts | 160° |
| 2026-05-04 17:50 | 40.27898 | 14.49877 | 20142 ft | 395 kts | 161° |
| 2026-05-04 17:51 | 40.25334 | 14.51257 | 20648 ft | 400 kts | 160° |
| 2026-05-04 17:51 | 40.22746 | 14.52649 | 21148 ft | 405 kts | 160° |
| 2026-05-04 17:51 | 40.20128 | 14.54056 | 21654 ft | 409 kts | 160° |
| 2026-05-04 17:51 | 40.17479 | 14.55477 | 22135 ft | 413 kts | 160° |
| 2026-05-04 17:52 | 40.14807 | 14.56906 | 22600 ft | 417 kts | 160° |
| 2026-05-04 17:52 | 40.12109 | 14.58349 | 23057 ft | 421 kts | 160° |
| 2026-05-04 17:52 | 40.09388 | 14.59808 | 23508 ft | 425 kts | 160° |
| 2026-05-04 17:52 | 40.06644 | 14.61282 | 23937 ft | 428 kts | 160° |
| 2026-05-04 17:53 | 40.03872 | 14.62769 | 24369 ft | 432 kts | 160° |
| 2026-05-04 17:53 | 40.01105 | 14.64247 | 24790 ft | 435 kts | 160° |
| 2026-05-04 17:53 | 39.98289 | 14.65747 | 25178 ft | 439 kts | 160° |
| 2026-05-04 17:53 | 39.95446 | 14.67260 | 25531 ft | 444 kts | 160° |
| 2026-05-04 17:54 | 39.92575 | 14.68785 | 25922 ft | 447 kts | 160° |
| 2026-05-04 17:54 | 39.89709 | 14.70304 | 26295 ft | 451 kts | 160° |
| 2026-05-04 17:54 | 39.86771 | 14.71862 | 26674 ft | 454 kts | 160° |
| 2026-05-04 17:54 | 39.83811 | 14.73337 | 27043 ft | 455 kts | 166° |
| 2026-05-04 17:55 | 39.80733 | 14.74269 | 27386 ft | 454 kts | 176° |
| 2026-05-04 17:55 | 39.77593 | 14.74566 | 27716 ft | 452 kts | 185° |
| 2026-05-04 17:55 | 39.74465 | 14.74269 | 28051 ft | 451 kts | 191° |
| 2026-05-04 17:55 | 39.71336 | 14.73851 | 28407 ft | 454 kts | 191° |
| 2026-05-04 17:56 | 39.68185 | 14.73437 | 28738 ft | 457 kts | 191° |
| 2026-05-04 17:56 | 39.65013 | 14.73026 | 29068 ft | 459 kts | 191° |
| 2026-05-04 17:56 | 39.61827 | 14.72618 | 29397 ft | 462 kts | 191° |
| 2026-05-04 17:56 | 39.58617 | 14.72202 | 29717 ft | 465 kts | 191° |
| 2026-05-04 17:57 | 39.55388 | 14.71782 | 30029 ft | 467 kts | 191° |
| 2026-05-04 17:57 | 39.52146 | 14.71358 | 30326 ft | 470 kts | 191° |
| 2026-05-04 17:57 | 39.48889 | 14.70935 | 30604 ft | 472 kts | 191° |
| 2026-05-04 17:57 | 39.45606 | 14.70513 | 30900 ft | 475 kts | 191° |
| 2026-05-04 17:58 | 39.42315 | 14.70092 | 31185 ft | 476 kts | 191° |
| 2026-05-04 17:58 | 39.39009 | 14.69673 | 31460 ft | 478 kts | 191° |
| 2026-05-04 17:58 | 39.35688 | 14.69252 | 31730 ft | 480 kts | 191° |
| 2026-05-04 17:58 | 39.32367 | 14.68829 | 32117 ft | 479 kts | 191° |
| 2026-05-04 17:59 | 39.29048 | 14.68405 | 32460 ft | 479 kts | 192° |
| 2026-05-04 17:59 | 39.25736 | 14.67982 | 32811 ft | 478 kts | 192° |
| 2026-05-04 17:59 | 39.19161 | 14.67151 | 33497 ft | 477 kts | 192° |
| 2026-05-04 18:00 | 39.15860 | 14.66729 | 33835 ft | 477 kts | 192° |
| 2026-05-04 18:00 | 39.12561 | 14.66306 | 34170 ft | 477 kts | 192° |
| 2026-05-04 18:00 | 39.09258 | 14.65886 | 34507 ft | 476 kts | 192° |
| 2026-05-04 18:00 | 39.05969 | 14.65472 | 34835 ft | 475 kts | 192° |
| 2026-05-04 18:01 | 39.02677 | 14.65057 | 35128 ft | 475 kts | 192° |
| 2026-05-04 18:01 | 38.99390 | 14.64638 | 35437 ft | 474 kts | 192° |
| 2026-05-04 18:01 | 38.96106 | 14.64217 | 35742 ft | 474 kts | 192° |
| 2026-05-04 18:02 | 38.89590 | 14.63386 | 36432 ft | 468 kts | 192° |
| 2026-05-04 18:02 | 38.86353 | 14.62975 | 36703 ft | 467 kts | 192° |
| 2026-05-04 18:02 | 38.83123 | 14.62565 | 37012 ft | 465 kts | 192° |
| 2026-05-04 18:02 | 38.79911 | 14.62160 | 37126 ft | 461 kts | 192° |
| 2026-05-04 18:03 | 38.73590 | 14.61369 | 37147 ft | 453 kts | 192° |
| 2026-05-04 18:03 | 38.67325 | 14.60582 | 37145 ft | 452 kts | 192° |
| 2026-05-04 18:04 | 38.61072 | 14.59786 | 37148 ft | 451 kts | 192° |
| 2026-05-04 18:05 | 38.51696 | 14.58611 | 37146 ft | 451 kts | 192° |
| 2026-05-04 18:05 | 38.45447 | 14.57839 | 37149 ft | 451 kts | 192° |
| 2026-05-04 18:06 | 38.36083 | 14.56670 | 37151 ft | 451 kts | 192° |
| 2026-05-04 18:06 | 38.29848 | 14.55894 | 37151 ft | 450 kts | 192° |
| 2026-05-04 18:07 | 38.23617 | 14.55127 | 37150 ft | 450 kts | 192° |
| 2026-05-04 18:07 | 38.17386 | 14.54354 | 37152 ft | 450 kts | 192° |
| 2026-05-04 18:08 | 38.11206 | 14.53574 | 37154 ft | 449 kts | 193° |
| 2026-05-04 18:08 | 38.04990 | 14.52796 | 37153 ft | 449 kts | 193° |
| 2026-05-04 18:09 | 37.92558 | 14.51259 | 37155 ft | 448 kts | 192° |
| 2026-05-04 18:10 | 37.86353 | 14.50499 | 37154 ft | 448 kts | 192° |
| 2026-05-04 18:10 | 37.80147 | 14.49737 | 37152 ft | 448 kts | 192° |
| 2026-05-04 18:11 | 37.73945 | 14.48973 | 37145 ft | 448 kts | 192° |
| 2026-05-04 18:11 | 37.67742 | 14.48212 | 37138 ft | 448 kts | 192° |
| 2026-05-04 18:12 | 37.61542 | 14.47458 | 37133 ft | 448 kts | 192° |
| 2026-05-04 18:12 | 37.55339 | 14.46706 | 37128 ft | 448 kts | 192° |
| 2026-05-04 18:13 | 37.49141 | 14.45950 | 37125 ft | 448 kts | 192° |
| 2026-05-04 18:14 | 37.39838 | 14.44816 | 37123 ft | 448 kts | 192° |
| 2026-05-04 18:14 | 37.36730 | 14.44438 | 36938 ft | 450 kts | 192° |
| 2026-05-04 18:14 | 37.33617 | 14.44056 | 35839 ft | 462 kts | 192° |
| 2026-05-04 18:15 | 37.27257 | 14.43288 | 34848 ft | 456 kts | 191° |
| 2026-05-04 18:15 | 37.20977 | 14.42538 | 33765 ft | 450 kts | 191° |
| 2026-05-04 18:15 | 37.17868 | 14.42191 | 33242 ft | 448 kts | 191° |
| 2026-05-04 18:16 | 37.14807 | 14.41889 | 32725 ft | 446 kts | 190° |
| 2026-05-04 18:16 | 37.11721 | 14.41611 | 32214 ft | 443 kts | 189° |
| 2026-05-04 18:16 | 37.08657 | 14.41346 | 31700 ft | 441 kts | 189° |
| 2026-05-04 18:17 | 37.02573 | 14.40813 | 30695 ft | 435 kts | 189° |
| 2026-05-04 18:17 | 36.99564 | 14.40535 | 30210 ft | 432 kts | 189° |
| 2026-05-04 18:17 | 36.93622 | 14.39964 | 29273 ft | 425 kts | 189° |
| 2026-05-04 18:18 | 36.90688 | 14.39685 | 28817 ft | 421 kts | 189° |
| 2026-05-04 18:18 | 36.87784 | 14.39415 | 28363 ft | 417 kts | 189° |
| 2026-05-04 18:18 | 36.84934 | 14.38975 | 27919 ft | 408 kts | 196° |
| 2026-05-04 18:18 | 36.82153 | 14.38332 | 27461 ft | 405 kts | 196° |
| 2026-05-04 18:19 | 36.77427 | 14.37235 | 25734 ft | 417 kts | 195° |
| 2026-05-04 18:19 | 36.74600 | 14.36589 | 24893 ft | 409 kts | 195° |
| 2026-05-04 18:19 | 36.71822 | 14.35960 | 24033 ft | 403 kts | 195° |
| 2026-05-04 18:20 | 36.69120 | 14.35349 | 23189 ft | 397 kts | 195° |
| 2026-05-04 18:20 | 36.66423 | 14.34738 | 22359 ft | 391 kts | 195° |
| 2026-05-04 18:20 | 36.63765 | 14.34133 | 21542 ft | 386 kts | 194° |
| 2026-05-04 18:20 | 36.61111 | 14.33526 | 20721 ft | 380 kts | 194° |
| 2026-05-04 18:21 | 36.58558 | 14.32941 | 19927 ft | 375 kts | 194° |
| 2026-05-04 18:21 | 36.56008 | 14.32358 | 19127 ft | 371 kts | 194° |
| 2026-05-04 18:21 | 36.53453 | 14.31775 | 18321 ft | 366 kts | 194° |
| 2026-05-04 18:21 | 36.51001 | 14.31216 | 17555 ft | 361 kts | 194° |
| 2026-05-04 18:22 | 36.48509 | 14.30649 | 16773 ft | 357 kts | 194° |
| 2026-05-04 18:22 | 36.46115 | 14.30100 | 16022 ft | 353 kts | 194° |
| 2026-05-04 18:22 | 36.43718 | 14.29552 | 15271 ft | 348 kts | 193° |
| 2026-05-04 18:22 | 36.41319 | 14.29006 | 14518 ft | 344 kts | 193° |
| 2026-05-04 18:23 | 36.38972 | 14.28476 | 13782 ft | 340 kts | 193° |
| 2026-05-04 18:23 | 36.36689 | 14.27963 | 13058 ft | 336 kts | 193° |
| 2026-05-04 18:23 | 36.34403 | 14.27446 | 12323 ft | 332 kts | 193° |
| 2026-05-04 18:23 | 36.32141 | 14.26934 | 11584 ft | 328 kts | 192° |
| 2026-05-04 18:24 | 36.29910 | 14.26431 | 10864 ft | 323 kts | 192° |
| 2026-05-04 18:24 | 36.27712 | 14.25937 | 10143 ft | 319 kts | 191° |
| 2026-05-04 18:24 | 36.25566 | 14.25450 | 9703 ft | 306 kts | 191° |
| 2026-05-04 18:24 | 36.23504 | 14.24979 | 9156 ft | 298 kts | 191° |
| 2026-05-04 18:25 | 36.21481 | 14.24518 | 8519 ft | 294 kts | 191° |
| 2026-05-04 18:25 | 36.19485 | 14.24063 | 7891 ft | 289 kts | 191° |
| 2026-05-04 18:25 | 36.17533 | 14.23623 | 7363 ft | 281 kts | 189° |
| 2026-05-04 18:25 | 36.15609 | 14.23618 | 6881 ft | 271 kts | 167° |
| 2026-05-04 18:26 | 36.13861 | 14.24182 | 6696 ft | 252 kts | 165° |
| 2026-05-04 18:26 | 36.12181 | 14.24730 | 6111 ft | 251 kts | 165° |
| 2026-05-04 18:26 | 36.10480 | 14.25280 | 5542 ft | 252 kts | 165° |
| 2026-05-04 18:26 | 36.08827 | 14.25815 | 5305 ft | 240 kts | 166° |
| 2026-05-04 18:27 | 36.07258 | 14.26325 | 5093 ft | 227 kts | 166° |
| 2026-05-04 18:27 | 36.05766 | 14.26810 | 4951 ft | 217 kts | 166° |
| 2026-05-04 18:27 | 36.04337 | 14.27275 | 4855 ft | 208 kts | 166° |
| 2026-05-04 18:27 | 36.02964 | 14.27725 | 4759 ft | 199 kts | 166° |
| 2026-05-04 18:28 | 36.01674 | 14.28247 | 4619 ft | 195 kts | 153° |
| 2026-05-04 18:28 | 36.00612 | 14.29254 | 4367 ft | 192 kts | 136° |
| 2026-05-04 18:28 | 35.99685 | 14.30413 | 4118 ft | 188 kts | 136° |
| 2026-05-04 18:28 | 35.98777 | 14.31547 | 3875 ft | 184 kts | 136° |
| 2026-05-04 18:29 | 35.97884 | 14.32660 | 3635 ft | 180 kts | 136° |
| 2026-05-04 18:29 | 35.97037 | 14.33715 | 3407 ft | 173 kts | 136° |
| 2026-05-04 18:29 | 35.96198 | 14.34760 | 3176 ft | 168 kts | 136° |
| 2026-05-04 18:29 | 35.95384 | 14.35773 | 2945 ft | 165 kts | 137° |
| 2026-05-04 18:30 | 35.93780 | 14.37770 | 2519 ft | 163 kts | 136° |
| 2026-05-04 18:30 | 35.92981 | 14.38765 | 2315 ft | 163 kts | 136° |
| 2026-05-04 18:30 | 35.92189 | 14.39749 | 2115 ft | 161 kts | 136° |
| 2026-05-04 18:31 | 35.91412 | 14.40716 | 1877 ft | 153 kts | 136° |
| 2026-05-04 18:31 | 35.90701 | 14.41600 | 1676 ft | 142 kts | 136° |
| 2026-05-04 18:31 | 35.90020 | 14.42445 | 1515 ft | 137 kts | 136° |
| 2026-05-04 18:31 | 35.89358 | 14.43273 | 1315 ft | 134 kts | 136° |
| 2026-05-04 18:32 | 35.88689 | 14.44102 | 1154 ft | 134 kts | 136° |
| 2026-05-04 18:32 | 35.88041 | 14.44905 | 963 ft | 133 kts | 136° |
| 2026-05-04 18:32 | 35.87385 | 14.45741 | 828 ft | 135 kts | 134° |
| 2026-05-04 18:32 | 35.86726 | 14.46564 | 622 ft | 135 kts | 136° |
| 2026-05-04 18:33 | 35.86070 | 14.47359 | 402 ft | 133 kts | 136° |
| 2026-05-04 18:33 | 35.85413 | 14.48158 | 281 ft | 130 kts | 136° |
| 2026-05-04 18:33 | 35.84869 | 14.48836 | 259 ft | 88 kts | 134° |
| 2026-05-04 18:33 | 35.84551 | 14.49241 | 259 ft | 44 kts | 132° |
| 2026-05-04 18:34 | 35.84449 | 14.49507 | 259 ft | 15 kts | 86° |
| 2026-05-04 18:34 | 35.84519 | 14.49565 | 259 ft | 13 kts | 340° |
| 2026-05-04 18:34 | 35.84596 | 14.49543 | 259 ft | 11 kts | 27° |
| 2026-05-04 18:34 | 35.84657 | 14.49577 | 259 ft | 9 kts | 347° |
| 2026-05-04 18:35 | 35.84711 | 14.49544 | 259 ft | 8 kts | 320° |
| 2026-05-04 18:35 | 35.84750 | 14.49496 | 259 ft | 7 kts | 314° |
| 2026-05-04 18:35 | 35.84787 | 14.49461 | 259 ft | 6 kts | 340° |
| 2026-05-04 18:35 | 35.84828 | 14.49456 | 259 ft | 6 kts | 360° |
| 2026-05-04 18:36 | 35.84859 | 14.49455 | 259 ft | 3 kts | 359° |
| 2026-05-04 18:36 | 35.84861 | 14.49455 | 259 ft | 0 kts | 359° |
| 2026-05-04 18:36 | 35.84862 | 14.49455 | 259 ft | 0 kts | 359° |
| 2026-05-04 18:37 | 35.84862 | 14.49456 | 259 ft | 0 kts | 0° |